Time;durP1;ratioP1;P1;durP2;ratioP2;P2;SDS_P1;SDS_P2;PMS_P1;PMS_P2;Temp;Humidity;BMP_temperature;BMP_pressure;BME280_temperature;BME280_humidity;BME280_pressure;Samples;Min_cycle;Max_cycle;Signal;HPM_P1;HPM_P2
2022/07/03 00:02:16;;;;;;;16.53;5.30;;;21.40;50.60;;;;;;5045570;28;20203;-89
2022/07/03 00:04:43;;;;;;;11.83;3.67;;;21.40;50.70;;;;;;5047949;28;20244;-89
2022/07/03 00:07:12;;;;;;;10.80;3.60;;;21.30;50.70;;;;;;5049959;28;20274;-89
2022/07/03 00:09:40;;;;;;;9.43;3.20;;;21.30;50.90;;;;;;5048200;28;20252;-89
2022/07/03 00:12:08;;;;;;;12.90;3.90;;;21.30;51.10;;;;;;5047550;28;20765;-90
2022/07/03 00:14:35;;;;;;;9.67;3.33;;;21.20;51.10;;;;;;5049574;28;20208;-88
2022/07/03 00:17:03;;;;;;;16.70;5.43;;;21.20;51.30;;;;;;5047115;28;20211;-88
2022/07/03 00:19:31;;;;;;;8.87;2.77;;;21.20;51.30;;;;;;5047049;28;20230;-88
2022/07/03 00:22:03;;;;;;;8.43;3.03;;;21.10;51.40;;;;;;5036891;28;20544;-92
2022/07/03 00:24:37;;;;;;;11.70;3.33;;;21.10;51.40;;;;;;5029573;28;20232;-90
2022/07/03 00:27:08;;;;;;;8.03;2.63;;;21.10;51.60;;;;;;5042509;28;20205;-89
2022/07/03 00:29:39;;;;;;;14.80;4.30;;;21.00;51.60;;;;;;5048980;28;20967;-89
2022/07/03 00:32:09;;;;;;;12.17;3.90;;;21.00;51.70;;;;;;5041820;28;20269;-89
2022/07/03 00:34:37;;;;;;;6.53;2.17;;;21.00;51.80;;;;;;5048600;28;20204;-90
2022/07/03 00:37:08;;;;;;;13.93;4.37;;;21.00;52.00;;;;;;5047703;28;20575;-88
2022/07/03 00:39:37;;;;;;;8.47;2.87;;;21.00;52.00;;;;;;5049081;28;20665;-89
2022/07/03 00:42:07;;;;;;;13.13;3.97;;;21.00;52.10;;;;;;5047165;28;20203;-88
2022/07/03 00:44:44;;;;;;;9.73;3.37;;;20.90;52.00;;;;;;5048266;28;20292;-89
2022/07/03 00:47:12;;;;;;;8.30;2.70;;;20.90;52.10;;;;;;5046851;28;20261;-88
2022/07/03 00:49:41;;;;;;;8.13;2.87;;;20.90;52.30;;;;;;5047935;28;20224;-89
2022/07/03 00:52:12;;;;;;;9.57;3.00;;;20.80;52.40;;;;;;5049017;28;20238;-90
2022/07/03 00:54:43;;;;;;;8.50;2.83;;;20.80;52.60;;;;;;5045286;28;20279;-89
2022/07/03 00:57:15;;;;;;;9.63;2.77;;;20.80;52.70;;;;;;5048553;28;20208;-90
2022/07/03 00:59:43;;;;;;;10.63;3.50;;;20.70;52.80;;;;;;5048445;28;20266;-89
2022/07/03 01:02:17;;;;;;;9.30;3.00;;;20.70;52.60;;;;;;5047037;28;20296;-89
2022/07/03 01:04:52;;;;;;;11.30;3.83;;;20.70;53.10;;;;;;5045585;28;20271;-90
2022/07/03 01:07:29;;;;;;;9.00;3.10;;;20.60;53.20;;;;;;5048235;28;20295;-90
2022/07/03 01:10:04;;;;;;;11.70;3.93;;;20.60;53.20;;;;;;5047966;28;20253;-90
2022/07/03 01:12:47;;;;;;;11.80;3.50;;;20.60;53.20;;;;;;5045514;28;20678;-89
2022/07/03 01:15:28;;;;;;;12.67;3.80;;;20.50;53.80;;;;;;5035120;28;20237;-89
2022/07/03 01:18:08;;;;;;;6.37;2.23;;;20.50;53.80;;;;;;5050760;28;20492;-89
2022/07/03 01:20:39;;;;;;;9.40;3.27;;;20.40;53.70;;;;;;5051227;28;20994;-89
2022/07/03 01:23:14;;;;;;;6.63;2.47;;;20.40;53.90;;;;;;5050387;28;20208;-90
2022/07/03 01:25:47;;;;;;;8.07;2.97;;;20.30;53.80;;;;;;5049174;28;20230;-90
2022/07/03 01:28:16;;;;;;;9.20;2.87;;;20.30;54.10;;;;;;5030673;28;20200;-88
2022/07/03 01:30:48;;;;;;;10.20;3.40;;;20.30;54.10;;;;;;5036780;28;20203;-90
2022/07/03 01:33:18;;;;;;;8.43;2.87;;;20.20;54.30;;;;;;5051726;28;20242;-88
2022/07/03 01:35:58;;;;;;;10.20;2.80;;;20.20;54.40;;;;;;5052065;28;20379;-89
2022/07/03 01:38:28;;;;;;;9.80;3.30;;;20.20;55.10;;;;;;5051420;28;20215;-90
2022/07/03 01:41:02;;;;;;;9.57;2.90;;;20.10;54.70;;;;;;5049686;28;20208;-88
2022/07/03 01:43:31;;;;;;;10.03;2.97;;;20.10;54.80;;;;;;5049840;28;20273;-90
2022/07/03 01:46:00;;;;;;;10.63;3.67;;;20.00;54.90;;;;;;5050673;28;20231;-89
2022/07/03 01:48:29;;;;;;;9.27;2.77;;;20.10;55.10;;;;;;5048350;28;20569;-88
2022/07/03 01:50:57;;;;;;;10.33;3.30;;;20.00;55.10;;;;;;5049698;28;20218;-89
2022/07/03 01:53:26;;;;;;;10.63;3.50;;;20.00;55.40;;;;;;5045871;28;20674;-89
2022/07/03 01:55:59;;;;;;;8.23;3.13;;;20.00;56.20;;;;;;5047244;28;20294;-89
2022/07/03 01:58:27;;;;;;;10.47;3.60;;;20.00;55.60;;;;;;5046564;28;20212;-88
2022/07/03 02:01:02;;;;;;;10.27;3.53;;;19.90;55.50;;;;;;5047593;28;20266;-89
2022/07/03 02:03:31;;;;;;;13.20;4.37;;;19.90;55.70;;;;;;5045228;28;20204;-90
2022/07/03 02:06:05;;;;;;;11.70;4.10;;;19.90;55.80;;;;;;5047839;28;20233;-88
2022/07/03 02:08:41;;;;;;;11.87;4.37;;;19.90;56.00;;;;;;5049938;28;20729;-89
2022/07/03 02:11:15;;;;;;;12.63;3.90;;;19.90;56.20;;;;;;5049672;28;20749;-88
2022/07/03 02:13:52;;;;;;;11.77;3.87;;;19.90;56.30;;;;;;5049444;28;20620;-89
2022/07/03 02:16:21;;;;;;;11.70;4.00;;;19.80;56.40;;;;;;5051467;28;20207;-87
2022/07/03 02:18:57;;;;;;;10.57;3.23;;;19.80;56.10;;;;;;5050624;28;20566;-89
2022/07/03 02:21:28;;;;;;;12.40;4.23;;;19.80;56.60;;;;;;5049673;28;20226;-89
2022/07/03 02:24:08;;;;;;;9.23;3.33;;;19.80;56.60;;;;;;5051457;28;20215;-89
2022/07/03 02:26:40;;;;;;;12.13;4.27;;;19.80;56.90;;;;;;5048977;28;20239;-89
2022/07/03 02:29:13;;;;;;;12.30;4.03;;;19.80;56.70;;;;;;5050410;28;20242;-88
2022/07/03 02:31:44;;;;;;;9.13;3.30;;;19.70;56.60;;;;;;5050337;28;20237;-88
2022/07/03 02:34:16;;;;;;;13.97;4.90;;;19.70;56.80;;;;;;5051238;28;20286;-89
2022/07/03 02:36:48;;;;;;;7.77;3.17;;;19.70;56.90;;;;;;5050236;28;20218;-89
2022/07/03 02:39:24;;;;;;;8.30;3.23;;;19.70;57.00;;;;;;5050252;28;20299;-88
2022/07/03 02:42:01;;;;;;;6.97;3.07;;;19.70;57.00;;;;;;5050005;28;20264;-90
2022/07/03 02:44:35;;;;;;;12.10;4.43;;;19.70;57.10;;;;;;5047992;28;20191;-89
2022/07/03 02:47:15;;;;;;;12.50;4.23;;;19.70;57.40;;;;;;5049902;28;20234;-89
2022/07/03 02:49:58;;;;;;;10.63;3.90;;;19.60;57.30;;;;;;5049557;28;20265;-88
2022/07/03 02:52:34;;;;;;;18.20;5.93;;;19.60;57.80;;;;;;5050303;28;20265;-90
2022/07/03 02:55:08;;;;;;;14.43;4.77;;;19.60;57.80;;;;;;5050076;28;20206;-88
2022/07/03 02:57:41;;;;;;;11.07;4.57;;;19.60;57.70;;;;;;5048032;28;20266;-88
2022/07/03 03:00:10;;;;;;;12.37;4.70;;;19.60;57.80;;;;;;5048199;28;20535;-90
2022/07/03 03:02:53;;;;;;;13.53;5.47;;;19.50;57.60;;;;;;5049669;28;20208;-89
2022/07/03 03:05:26;;;;;;;12.20;5.20;;;19.50;58.30;;;;;;5049150;28;20714;-90
2022/07/03 03:08:03;;;;;;;9.07;4.33;;;19.50;58.00;;;;;;5049776;28;20206;-90
2022/07/03 03:10:30;;;;;;;11.63;5.37;;;19.40;58.20;;;;;;5049163;28;20457;-89
2022/07/03 03:13:05;;;;;;;12.20;5.87;;;19.40;58.00;;;;;;5042053;28;20284;-88
2022/07/03 03:15:33;;;;;;;8.97;4.57;;;19.40;58.60;;;;;;5049329;28;20198;-89
2022/07/03 03:18:04;;;;;;;9.20;4.80;;;19.40;58.10;;;;;;5047451;28;21041;-89
2022/07/03 03:20:32;;;;;;;12.17;5.83;;;19.40;58.30;;;;;;5049447;28;20310;-88
2022/07/03 03:23:22;;;;;;;10.37;5.00;;;19.30;58.30;;;;;;5048207;28;20203;-91
2022/07/03 03:25:52;;;;;;;11.70;5.57;;;19.30;59.00;;;;;;5050225;28;20230;-91
2022/07/03 03:28:21;;;;;;;12.33;5.70;;;19.30;58.70;;;;;;5048328;28;20203;-89
2022/07/03 03:30:49;;;;;;;12.03;5.83;;;19.30;58.80;;;;;;5048985;28;20363;-88
2022/07/03 03:33:17;;;;;;;9.27;5.30;;;19.30;58.80;;;;;;5048868;28;20273;-88
2022/07/03 03:35:44;;;;;;;11.33;5.70;;;19.20;58.90;;;;;;5041919;28;20261;-89
2022/07/03 03:38:12;;;;;;;12.80;5.60;;;19.20;58.80;;;;;;5039674;28;20249;-88
2022/07/03 03:40:44;;;;;;;10.97;5.30;;;19.20;58.90;;;;;;5048683;28;20203;-89
2022/07/03 03:43:11;;;;;;;14.70;6.87;;;19.20;59.30;;;;;;5047252;28;20210;-89
2022/07/03 03:45:40;;;;;;;13.87;5.93;;;19.10;59.10;;;;;;5049842;28;20195;-90
2022/07/03 03:48:07;;;;;;;11.57;5.20;;;19.10;59.30;;;;;;5048723;28;20241;-90
2022/07/03 03:50:34;;;;;;;17.37;6.33;;;19.10;59.30;;;;;;5045773;28;20294;-89
2022/07/03 03:53:02;;;;;;;11.27;5.33;;;19.10;59.30;;;;;;5050336;28;20257;-89
2022/07/03 03:55:30;;;;;;;12.67;6.03;;;19.10;59.50;;;;;;5045702;28;20229;-89
2022/07/03 03:57:57;;;;;;;12.97;5.83;;;19.10;59.70;;;;;;5046431;28;20219;-88
2022/07/03 04:00:24;;;;;;;11.83;5.83;;;19.10;59.70;;;;;;5048994;28;20211;-90
2022/07/03 04:02:52;;;;;;;14.90;5.77;;;19.10;59.70;;;;;;5048257;28;20625;-88
2022/07/03 04:05:20;;;;;;;12.70;5.63;;;19.00;59.90;;;;;;5048513;28;20694;-89
2022/07/03 04:07:47;;;;;;;14.20;6.47;;;19.00;59.80;;;;;;5049503;28;20736;-88
2022/07/03 04:10:14;;;;;;;17.27;7.73;;;19.00;59.90;;;;;;5047629;28;20317;-89
2022/07/03 04:12:41;;;;;;;12.23;6.13;;;19.00;60.00;;;;;;5047583;28;20206;-89
2022/07/03 04:15:09;;;;;;;13.23;6.33;;;19.00;60.20;;;;;;5048411;28;20244;-88
2022/07/03 04:17:36;;;;;;;16.53;6.87;;;19.00;60.40;;;;;;5049450;28;20198;-89
2022/07/03 04:20:05;;;;;;;12.00;5.63;;;19.00;60.50;;;;;;5047434;28;20213;-90
2022/07/03 04:22:32;;;;;;;10.53;5.80;;;18.90;60.90;;;;;;5049589;28;20210;-89
2022/07/03 04:24:59;;;;;;;15.77;7.20;;;18.90;60.70;;;;;;5048212;28;20208;-88
2022/07/03 04:27:26;;;;;;;12.97;5.63;;;18.90;60.80;;;;;;5046104;28;20227;-88
2022/07/03 04:29:53;;;;;;;11.30;5.40;;;18.90;61.00;;;;;;5048432;28;20293;-90
2022/07/03 04:32:20;;;;;;;13.13;6.57;;;18.90;61.00;;;;;;5048763;28;20250;-89
2022/07/03 04:34:49;;;;;;;13.23;6.60;;;18.90;61.10;;;;;;5029558;28;20289;-89
2022/07/03 04:37:17;;;;;;;14.37;6.87;;;18.90;61.30;;;;;;5049058;28;20680;-90
2022/07/03 04:39:44;;;;;;;14.13;6.87;;;18.90;61.50;;;;;;5047600;28;20228;-89
2022/07/03 04:42:11;;;;;;;10.33;6.07;;;18.90;61.40;;;;;;5048056;28;20210;-90
2022/07/03 04:44:38;;;;;;;12.23;6.20;;;18.90;61.70;;;;;;5048046;28;20748;-89
2022/07/03 04:47:06;;;;;;;13.03;6.17;;;18.90;61.80;;;;;;5047620;28;20250;-88
2022/07/03 04:49:33;;;;;;;20.63;8.50;;;18.90;61.80;;;;;;5037492;28;20617;-89
2022/07/03 04:52:00;;;;;;;15.37;6.47;;;18.90;62.00;;;;;;5048533;28;20303;-91
2022/07/03 04:54:28;;;;;;;17.70;7.47;;;18.90;62.10;;;;;;5047232;28;20206;-88
2022/07/03 04:56:55;;;;;;;17.33;7.83;;;18.90;62.30;;;;;;5046129;28;20634;-89
2022/07/03 04:59:22;;;;;;;13.17;6.20;;;18.90;62.30;;;;;;5047708;28;20687;-88
2022/07/03 05:01:50;;;;;;;15.90;7.47;;;19.00;62.70;;;;;;5047567;28;20190;-89
2022/07/03 05:04:17;;;;;;;17.63;7.20;;;19.00;62.70;;;;;;5028802;28;20648;-89
2022/07/03 05:06:44;;;;;;;13.27;6.07;;;19.00;62.80;;;;;;5027941;28;20228;-89
2022/07/03 05:09:12;;;;;;;13.30;6.10;;;19.00;62.90;;;;;;5027934;28;20267;-89
2022/07/03 05:11:41;;;;;;;15.47;6.53;;;19.00;63.00;;;;;;5045067;28;20277;-90
2022/07/03 05:14:08;;;;;;;14.57;7.30;;;19.00;63.30;;;;;;5046820;28;20243;-90
2022/07/03 05:16:37;;;;;;;12.43;6.63;;;19.00;63.50;;;;;;5048771;28;20242;-90
2022/07/03 05:19:04;;;;;;;15.30;7.13;;;19.00;63.50;;;;;;5046394;28;20217;-91
2022/07/03 05:21:32;;;;;;;13.30;6.07;;;19.00;63.40;;;;;;5045961;28;20210;-90
2022/07/03 05:23:59;;;;;;;11.03;6.27;;;19.00;63.60;;;;;;5046325;28;20209;-89
2022/07/03 05:26:26;;;;;;;13.90;6.17;;;19.00;63.50;;;;;;5046157;28;20218;-89
2022/07/03 05:28:55;;;;;;;11.37;5.33;;;19.10;63.80;;;;;;5046470;28;20648;-88
2022/07/03 05:31:21;;;;;;;11.77;6.20;;;19.10;64.00;;;;;;5048051;28;20217;-89
2022/07/03 05:33:48;;;;;;;12.50;6.20;;;19.10;63.90;;;;;;5047248;28;20216;-89
2022/07/03 05:36:15;;;;;;;17.33;6.97;;;19.10;64.00;;;;;;5046755;28;20195;-89
2022/07/03 05:41:27;;;;;;;11.63;5.60;;;19.20;64.00;;;;;;5045835;28;20214;-89
2022/07/03 05:43:57;;;;;;;11.23;5.97;;;19.20;63.90;;;;;;5045383;28;20211;-91
2022/07/03 05:46:24;;;;;;;15.07;6.53;;;19.20;64.10;;;;;;5046646;28;20218;-90
2022/07/03 05:48:51;;;;;;;11.20;5.43;;;19.30;64.10;;;;;;5047741;28;20242;-89
2022/07/03 05:51:18;;;;;;;13.30;6.43;;;19.30;64.10;;;;;;5046791;28;20265;-89
2022/07/03 05:53:45;;;;;;;12.13;5.63;;;19.30;64.30;;;;;;5047762;28;20214;-90
2022/07/03 05:56:12;;;;;;;15.37;7.03;;;19.40;64.50;;;;;;5046897;28;20234;-91
2022/07/03 05:58:41;;;;;;;10.67;5.40;;;19.40;64.30;;;;;;5047734;28;20231;-89
2022/07/03 06:01:10;;;;;;;15.23;6.37;;;19.50;64.50;;;;;;5045129;28;20295;-89
2022/07/03 06:03:37;;;;;;;11.80;5.70;;;19.60;64.90;;;;;;5044743;28;20261;-89
2022/07/03 06:06:05;;;;;;;11.03;5.97;;;19.60;64.70;;;;;;5044357;28;20307;-90
2022/07/03 06:08:32;;;;;;;11.80;5.73;;;19.60;64.80;;;;;;5043436;28;20249;-89
2022/07/03 06:10:59;;;;;;;10.03;5.50;;;19.70;64.80;;;;;;5028409;28;20211;-91
2022/07/03 06:13:27;;;;;;;11.30;5.80;;;19.70;64.80;;;;;;5037216;28;20353;-90
2022/07/03 06:15:55;;;;;;;12.13;5.60;;;19.80;64.90;;;;;;5048091;28;20654;-89
2022/07/03 06:18:24;;;;;;;12.30;5.17;;;19.80;64.80;;;;;;5047885;28;20207;-91
2022/07/03 06:20:51;;;;;;;12.20;6.13;;;19.90;65.10;;;;;;5047369;28;20212;-88
2022/07/03 06:23:18;;;;;;;11.77;5.97;;;19.90;64.90;;;;;;5045860;28;20258;-88
2022/07/03 06:25:45;;;;;;;10.43;5.03;;;20.00;65.20;;;;;;5047291;28;20216;-88
2022/07/03 06:28:12;;;;;;;12.37;5.17;;;20.00;65.10;;;;;;5047137;28;20792;-90
2022/07/03 06:30:45;;;;;;;9.93;5.23;;;20.10;65.00;;;;;;5047324;28;21040;-91
2022/07/03 06:33:12;;;;;;;10.43;5.37;;;20.10;65.00;;;;;;5048335;28;20725;-91
2022/07/03 06:35:40;;;;;;;12.43;5.43;;;20.10;64.60;;;;;;5048420;28;20189;-92
2022/07/03 06:38:07;;;;;;;16.53;5.77;;;20.20;65.20;;;;;;5052028;28;20250;-92
2022/07/03 06:40:34;;;;;;;11.30;5.37;;;20.20;65.00;;;;;;5052739;28;20219;-91
2022/07/03 06:43:01;;;;;;;10.83;5.37;;;20.20;65.00;;;;;;5035114;28;20630;-88
2022/07/03 06:45:28;;;;;;;14.23;5.17;;;20.20;65.00;;;;;;5049481;28;20604;-89
2022/07/03 06:47:55;;;;;;;11.87;5.30;;;20.20;65.00;;;;;;5056176;28;20234;-90
2022/07/03 06:50:23;;;;;;;14.73;5.73;;;20.20;65.30;;;;;;5047305;28;20208;-89
2022/07/03 06:52:51;;;;;;;10.87;5.13;;;20.20;65.10;;;;;;5050102;28;20211;-90
2022/07/03 06:55:19;;;;;;;12.83;5.47;;;20.20;65.30;;;;;;5049214;28;20223;-91
2022/07/03 06:57:46;;;;;;;9.93;4.83;;;20.30;65.30;;;;;;5050853;28;20257;-90
2022/07/03 07:00:14;;;;;;;15.57;5.40;;;20.30;65.20;;;;;;5049865;28;20200;-89
2022/07/03 07:02:41;;;;;;;13.17;5.57;;;20.30;65.50;;;;;;5050945;28;20211;-88
2022/07/03 07:05:09;;;;;;;11.57;4.83;;;20.30;65.20;;;;;;5048820;28;20613;-88
2022/07/03 07:07:36;;;;;;;12.53;5.57;;;20.30;65.30;;;;;;5050242;28;20247;-88
2022/07/03 07:10:05;;;;;;;21.63;6.77;;;20.30;65.50;;;;;;5047376;28;21361;-87
2022/07/03 07:12:34;;;;;;;10.77;4.73;;;20.40;65.60;;;;;;5047963;28;20262;-88
2022/07/03 07:15:03;;;;;;;12.87;5.10;;;20.40;65.80;;;;;;5048872;28;20234;-88
2022/07/03 07:17:30;;;;;;;10.03;4.83;;;20.40;66.10;;;;;;5050019;28;20265;-88
2022/07/03 07:19:57;;;;;;;9.30;4.80;;;20.40;65.70;;;;;;5039106;28;20687;-85
2022/07/03 07:22:25;;;;;;;17.47;6.53;;;20.50;65.70;;;;;;5031130;28;20232;-91
2022/07/03 07:24:52;;;;;;;15.23;5.37;;;20.50;66.30;;;;;;5047359;28;20286;-87
2022/07/03 07:27:20;;;;;;;10.10;4.00;;;20.60;66.40;;;;;;5049297;28;20228;-89
2022/07/03 07:29:47;;;;;;;14.63;5.77;;;20.60;66.40;;;;;;5050061;28;20196;-88
2022/07/03 07:32:14;;;;;;;9.17;3.43;;;20.70;66.30;;;;;;5049265;28;20212;-88
2022/07/03 07:34:41;;;;;;;12.20;4.37;;;20.70;65.90;;;;;;5047258;28;20275;-88
2022/07/03 07:37:09;;;;;;;10.20;3.93;;;20.70;65.80;;;;;;5048375;28;20204;-89
2022/07/03 07:39:36;;;;;;;11.83;3.43;;;20.80;65.80;;;;;;5049632;28;20212;-87
2022/07/03 07:42:03;;;;;;;8.20;3.80;;;20.90;65.10;;;;;;5049629;28;20658;-88
2022/07/03 07:44:32;;;;;;;8.03;2.93;;;21.00;65.00;;;;;;5049061;28;21032;-88
2022/07/03 07:46:59;;;;;;;8.30;3.17;;;21.10;65.10;;;;;;5048227;28;20712;-89
2022/07/03 07:49:29;;;;;;;9.87;3.53;;;21.10;64.70;;;;;;5050494;28;20210;-87
2022/07/03 07:51:56;;;;;;;8.10;3.17;;;21.20;64.70;;;;;;5049416;28;20566;-89
2022/07/03 07:54:23;;;;;;;6.73;3.17;;;21.30;64.50;;;;;;5049829;28;20235;-88
2022/07/03 07:56:50;;;;;;;10.70;3.70;;;21.40;64.60;;;;;;5049823;28;20203;-88
2022/07/03 07:59:17;;;;;;;9.57;3.60;;;21.50;64.50;;;;;;5051098;28;20208;-89
2022/07/03 08:07:15;;;;;;;9.43;3.63;;;21.70;63.70;;;;;;5039644;28;20240;-91
2022/07/03 08:09:42;;;;;;;8.57;3.33;;;21.80;63.10;;;;;;5042658;28;20201;-88
2022/07/03 08:12:10;;;;;;;11.33;4.60;;;21.80;62.80;;;;;;5041796;28;20204;-88
2022/07/03 08:14:37;;;;;;;9.07;3.80;;;21.90;62.70;;;;;;5046746;28;20271;-89
2022/07/03 08:17:06;;;;;;;9.90;3.80;;;21.90;62.40;;;;;;5050374;28;20224;-89
2022/07/03 08:19:33;;;;;;;8.00;3.47;;;21.90;62.10;;;;;;5050169;28;20199;-91
2022/07/03 08:22:01;;;;;;;8.50;3.43;;;21.90;62.00;;;;;;5049971;28;20218;-87
2022/07/03 08:24:28;;;;;;;8.57;3.57;;;22.00;61.90;;;;;;5048344;28;20243;-89
2022/07/03 08:26:55;;;;;;;10.87;4.40;;;22.00;61.80;;;;;;5048687;28;20644;-90
2022/07/03 08:29:23;;;;;;;7.50;3.13;;;22.10;62.10;;;;;;5054551;28;20297;-86
2022/07/03 08:31:50;;;;;;;7.10;3.20;;;22.20;61.90;;;;;;5049083;28;20212;-89
2022/07/03 08:34:18;;;;;;;10.83;4.10;;;22.20;61.80;;;;;;5048272;28;20209;-89
2022/07/03 08:36:45;;;;;;;7.57;3.37;;;22.30;61.30;;;;;;5047122;28;20278;-88
2022/07/03 08:39:12;;;;;;;7.00;2.90;;;22.30;61.40;;;;;;5048251;28;20240;-88
2022/07/03 08:41:41;;;;;;;9.60;3.90;;;22.40;61.80;;;;;;5048146;28;20200;-89
2022/07/03 08:44:09;;;;;;;7.07;2.77;;;22.40;61.90;;;;;;5048179;28;20200;-90
2022/07/03 08:46:39;;;;;;;10.27;4.33;;;22.50;61.50;;;;;;5048147;28;20801;-91
2022/07/03 08:49:07;;;;;;;8.20;3.53;;;22.60;61.30;;;;;;5048987;28;20233;-88
2022/07/03 08:51:36;;;;;;;12.77;5.03;;;22.70;61.40;;;;;;5047528;28;20289;-89
2022/07/03 08:54:05;;;;;;;7.77;3.07;;;22.70;61.40;;;;;;5046688;28;20655;-89
2022/07/03 08:56:32;;;;;;;15.90;5.83;;;22.90;61.60;;;;;;5047293;28;20292;-88
2022/07/03 08:59:01;;;;;;;9.07;3.73;;;23.00;61.70;;;;;;5047937;28;20209;-87
2022/07/03 09:01:29;;;;;;;9.63;3.87;;;23.10;61.40;;;;;;5035789;28;20211;-90
2022/07/03 09:03:59;;;;;;;6.53;2.73;;;23.20;60.50;;;;;;5047661;28;20267;-89
2022/07/03 09:06:33;;;;;;;11.50;4.50;;;23.30;59.20;;;;;;5047899;28;20320;-92
2022/07/03 09:09:03;;;;;;;7.17;3.03;;;23.50;58.70;;;;;;5047021;28;20698;-88
2022/07/03 09:11:30;;;;;;;7.53;3.03;;;23.60;58.50;;;;;;5048173;28;20561;-90
2022/07/03 09:13:57;;;;;;;6.30;2.53;;;23.60;58.40;;;;;;5049461;28;20245;-93
2022/07/03 09:16:25;;;;;;;9.60;3.67;;;23.70;58.60;;;;;;5047660;28;20277;-91
2022/07/03 09:18:52;;;;;;;9.97;3.43;;;23.70;58.50;;;;;;5048661;28;20211;-91
2022/07/03 09:21:20;;;;;;;6.70;2.70;;;23.70;58.20;;;;;;5046497;28;20654;-90
2022/07/03 09:23:47;;;;;;;10.63;3.97;;;23.80;58.00;;;;;;5046742;28;20205;-89
2022/07/03 09:26:17;;;;;;;4.67;2.13;;;23.80;57.30;;;;;;5047873;28;20203;-91
2022/07/03 09:28:47;;;;;;;12.03;4.10;;;23.80;56.90;;;;;;5028648;28;20706;-90
2022/07/03 09:31:16;;;;;;;8.83;3.27;;;23.80;56.70;;;;;;5028948;28;20303;-92
2022/07/03 09:33:52;;;;;;;6.27;2.70;;;23.80;57.10;;;;;;5039229;28;20211;-88
2022/07/03 09:36:21;;;;;;;7.43;2.93;;;23.90;57.00;;;;;;5047974;28;20203;-88
2022/07/03 09:38:48;;;;;;;8.93;3.03;;;23.90;56.60;;;;;;5045785;28;20206;-90
2022/07/03 09:41:19;;;;;;;5.33;2.37;;;24.00;56.20;;;;;;5048390;28;20256;-89
2022/07/03 09:43:46;;;;;;;7.40;2.93;;;24.10;55.30;;;;;;5048594;28;20240;-89
2022/07/03 09:46:13;;;;;;;7.27;2.83;;;24.20;55.60;;;;;;5047358;28;20203;-90
2022/07/03 09:48:43;;;;;;;5.60;2.27;;;24.30;54.90;;;;;;5048168;28;20235;-90
2022/07/03 09:51:19;;;;;;;7.13;2.93;;;24.40;55.10;;;;;;5048221;28;20291;-88
2022/07/03 09:53:52;;;;;;;13.07;4.90;;;24.50;54.40;;;;;;5043014;28;20204;-90
2022/07/03 09:56:23;;;;;;;7.80;3.10;;;24.60;54.50;;;;;;5045684;28;20299;-89
2022/07/03 09:59:01;;;;;;;9.77;2.93;;;24.70;54.20;;;;;;5046197;28;20239;-90
2022/07/03 10:01:31;;;;;;;8.57;3.37;;;24.80;53.40;;;;;;5046846;28;20196;-90
2022/07/03 10:04:11;;;;;;;6.37;2.80;;;24.90;54.30;;;;;;5045849;28;20203;-90
2022/07/03 10:06:49;;;;;;;8.67;3.00;;;25.10;53.50;;;;;;5047972;28;20224;-92
2022/07/03 10:09:18;;;;;;;7.47;2.53;;;25.20;52.30;;;;;;5045736;28;20642;-91
2022/07/03 10:12:31;;;;;;;8.90;3.70;;;25.30;53.70;;;;;;5045776;28;20236;-90
2022/07/03 10:15:03;;;;;;;13.90;5.03;;;25.50;52.40;;;;;;5044619;28;20299;-90
2022/07/03 10:17:31;;;;;;;6.20;2.80;;;25.60;51.90;;;;;;5046872;28;20231;-90
2022/07/03 10:20:01;;;;;;;4.93;2.23;;;25.70;51.90;;;;;;5045739;28;20208;-89
2022/07/03 10:22:31;;;;;;;8.63;3.50;;;25.90;51.90;;;;;;5045052;28;20200;-89
2022/07/03 10:25:06;;;;;;;6.50;2.77;;;26.00;51.30;;;;;;5044376;28;20681;-90
2022/07/03 10:27:37;;;;;;;8.87;3.83;;;26.20;50.80;;;;;;5042298;28;20278;-90
2022/07/03 10:30:07;;;;;;;9.63;3.53;;;26.20;50.40;;;;;;5051564;28;20667;-90
2022/07/03 10:32:34;;;;;;;7.90;3.30;;;26.30;50.60;;;;;;5052405;28;20207;-92
2022/07/03 10:35:04;;;;;;;5.10;2.33;;;26.50;50.70;;;;;;5050394;28;20254;-89
2022/07/03 10:38:04;;;;;;;6.83;3.13;;;26.60;49.90;;;;;;5051760;28;20250;-91
2022/07/03 10:46:17;;;;;;;9.40;3.93;;;26.90;49.10;;;;;;5051777;28;20965;-92
2022/07/03 10:49:05;;;;;;;5.50;2.53;;;27.00;48.80;;;;;;5049967;28;20316;-90
2022/07/03 10:51:58;;;;;;;7.60;3.00;;;27.00;47.30;;;;;;5045515;28;20239;-90
2022/07/03 10:54:29;;;;;;;8.23;3.07;;;27.10;48.20;;;;;;5052874;28;20211;-93
2022/07/03 10:57:08;;;;;;;11.13;4.63;;;27.10;47.90;;;;;;5051117;28;20258;-92
2022/07/03 10:59:58;;;;;;;6.07;2.60;;;27.20;46.70;;;;;;5052483;28;20864;-90
2022/07/03 11:02:33;;;;;;;7.57;3.50;;;27.20;46.50;;;;;;5050466;28;20239;-90
2022/07/03 11:05:26;;;;;;;8.07;3.13;;;27.20;47.40;;;;;;5051335;28;20758;-92
2022/07/03 11:08:09;;;;;;;6.27;2.73;;;27.20;46.90;;;;;;5051149;28;20212;-88
2022/07/03 11:10:41;;;;;;;6.30;2.60;;;27.20;47.00;;;;;;5049706;28;20208;-91
2022/07/03 11:13:20;;;;;;;7.40;3.63;;;27.30;47.10;;;;;;5047180;28;20208;-91
2022/07/03 11:15:54;;;;;;;6.70;3.00;;;27.30;46.70;;;;;;5050047;28;20585;-92
2022/07/03 11:18:26;;;;;;;6.53;2.43;;;27.40;47.10;;;;;;5053176;28;20660;-90
2022/07/03 11:21:31;;;;;;;8.67;3.77;;;27.40;45.80;;;;;;5050339;28;20202;-93
2022/07/03 11:24:32;;;;;;;8.50;3.53;;;27.40;45.50;;;;;;5048306;28;20204;-92
2022/07/03 11:27:23;;;;;;;14.30;5.83;;;27.40;45.50;;;;;;5031323;28;20215;-92
2022/07/03 11:30:04;;;;;;;8.63;3.57;;;27.50;46.70;;;;;;5032354;28;21047;-92
2022/07/03 11:32:52;;;;;;;5.40;2.27;;;27.60;46.10;;;;;;5036738;28;20294;-91
2022/07/03 11:36:06;;;;;;;7.00;3.13;;;27.70;45.50;;;;;;5038654;28;20208;-91
2022/07/03 11:38:50;;;;;;;7.87;3.20;;;27.80;45.70;;;;;;5046636;28;20203;-90
2022/07/03 11:41:18;;;;;;;6.70;3.03;;;27.90;45.10;;;;;;5050714;28;20208;-92
2022/07/03 11:43:48;;;;;;;4.90;2.47;;;28.00;45.10;;;;;;5050149;28;20295;-89
2022/07/03 11:46:19;;;;;;;7.70;3.13;;;28.10;45.40;;;;;;5048829;28;20304;-89
2022/07/03 11:48:47;;;;;;;5.20;2.33;;;28.20;44.60;;;;;;5048463;28;20264;-90
2022/07/03 11:51:31;;;;;;;5.53;2.20;;;28.20;45.10;;;;;;5051072;28;20280;-90
2022/07/03 11:53:58;;;;;;;12.10;4.50;;;28.30;44.30;;;;;;5051948;28;20602;-90
2022/07/03 11:56:27;;;;;;;5.17;2.43;;;28.30;45.70;;;;;;5032040;28;20280;-90
2022/07/03 11:58:56;;;;;;;6.53;2.90;;;28.40;44.10;;;;;;5048306;28;20207;-89
2022/07/03 12:01:34;;;;;;;5.77;2.67;;;28.40;43.10;;;;;;5056895;28;20211;-93
2022/07/03 12:04:08;;;;;;;8.40;3.43;;;28.40;43.60;;;;;;5054369;28;20212;-90
2022/07/03 12:06:36;;;;;;;7.03;2.37;;;28.50;44.30;;;;;;5059028;28;20220;-90
2022/07/03 12:09:12;;;;;;;5.57;2.50;;;28.60;44.60;;;;;;5052892;28;20281;-91
2022/07/03 12:11:39;;;;;;;7.43;3.47;;;28.60;44.10;;;;;;5055186;28;20207;-90
2022/07/03 12:14:06;;;;;;;4.30;2.03;;;28.70;44.30;;;;;;5053099;28;20262;-90
2022/07/03 12:16:35;;;;;;;4.97;2.37;;;28.70;43.70;;;;;;5051278;28;20279;-92
2022/07/03 12:19:09;;;;;;;5.20;2.53;;;28.70;43.70;;;;;;5051990;28;20200;-93
2022/07/03 12:21:40;;;;;;;7.37;2.63;;;28.70;43.10;;;;;;5052431;28;20274;-92
2022/07/03 12:24:12;;;;;;;5.90;2.17;;;28.80;43.70;;;;;;5047281;28;20548;-92
2022/07/03 12:26:41;;;;;;;9.47;4.23;;;28.80;43.70;;;;;;5050504;28;20196;-93
2022/07/03 12:29:11;;;;;;;2.93;1.50;;;28.80;43.80;;;;;;5052252;28;20212;-92
2022/07/03 12:31:40;;;;;;;5.27;2.37;;;28.80;43.30;;;;;;5054141;28;20204;-90
2022/07/03 12:34:12;;;;;;;7.30;2.47;;;28.80;42.70;;;;;;5060588;28;20215;-94
2022/07/03 12:36:39;;;;;;;8.67;3.20;;;28.80;43.80;;;;;;5052910;28;20200;-91
2022/07/03 12:39:08;;;;;;;7.23;3.33;;;28.80;43.20;;;;;;5047645;28;20247;-93
2022/07/03 12:41:36;;;;;;;7.03;3.27;;;28.80;43.70;;;;;;5050947;28;20728;-90
2022/07/03 12:44:03;;;;;;;7.93;3.17;;;28.80;43.80;;;;;;5049170;28;20274;-92
2022/07/03 12:46:43;;;;;;;6.47;2.70;;;28.80;43.50;;;;;;5051411;28;20208;-91
2022/07/03 12:49:13;;;;;;;8.67;3.60;;;28.70;42.60;;;;;;5050846;28;20231;-91
2022/07/03 12:51:41;;;;;;;6.80;3.03;;;28.70;43.00;;;;;;5046508;28;20289;-90
2022/07/03 12:54:10;;;;;;;7.13;3.13;;;28.70;43.60;;;;;;5048946;28;20571;-91
2022/07/03 12:56:40;;;;;;;10.80;3.87;;;28.70;43.60;;;;;;5049857;28;20216;-92
2022/07/03 12:59:18;;;;;;;5.97;2.57;;;28.70;43.10;;;;;;5046818;28;20227;-92
2022/07/03 13:01:46;;;;;;;4.30;2.07;;;28.70;44.00;;;;;;5050815;28;20207;-92
2022/07/03 13:04:31;;;;;;;8.17;3.03;;;28.80;43.80;;;;;;5047256;28;20204;-91
2022/07/03 13:07:04;;;;;;;7.10;3.03;;;28.90;43.10;;;;;;5047189;28;20203;-90
2022/07/03 13:09:32;;;;;;;5.43;2.53;;;28.90;43.40;;;;;;5050061;28;20231;-92
2022/07/03 13:11:59;;;;;;;4.73;1.93;;;29.00;43.60;;;;;;5049646;28;20266;-91
2022/07/03 13:14:26;;;;;;;6.63;2.87;;;29.00;43.60;;;;;;5048216;28;20207;-92